Ever Decent — 9V7952 — position and weather

sailwx.info

Track history (hours):
 
Tides and Currents Weather Stations Pressure Air Temp Water Temp Dewpoint Dewpoint Depression Visibility Wind Speed Wind Dir Waves Ship Positions

Ever Decent

Last reported at 2017-May-21 15:55 UTC. Time now 2017-May-25 22:04 UTC.
Position N 22°19' E 114°07'.

Length 294 m; draft 11.3 m.

Type: Cargo ship. MMSI: 564904000.

Date/timePositionNaut miles runAvg speedWind from/ knotsBaromVisibWave heightAir tempDewpointWater temp
2017-May-21 15:55N 22°19' E 114°07'0 0.0
2017-May-21 02:49N 22°19' E 114°07'24714.5
2017-May-20 09:51N 23°54' E 118°15'617.6
2017-May-20 09:30N 23°60' E 118°15'817.0
2017-May-20 09:00N 24°08' E 118°16'714.3
2017-May-20 08:30N 24°15' E 118°15'612.5
2017-May-20 08:00N 24°20' E 118°10'511.1
2017-May-20 07:30N 24°24' E 118°06'4 7.8
2017-May-20 07:00N 24°26' E 118°03'4 8.9
2017-May-20 06:30N 24°31' E 118°05'0 0.3
2017-May-20 05:56N 24°31' E 118°05'0 0.0
2017-May-20 05:26N 24°31' E 118°05'0 0.0
2017-May-20 05:00N 24°31' E 118°05'0 0.0
2017-May-20 04:30N 24°31' E 118°05'0 0.0
2017-May-20 04:00N 24°31' E 118°05'0 0.0
2017-May-20 03:30N 24°31' E 118°05'0 0.0
2017-May-20 03:00N 24°31' E 118°05'0 0.0
2017-May-20 02:30N 24°31' E 118°05'0 0.0
2017-May-20 02:00N 24°31' E 118°05'0 0.0
2017-May-20 01:29N 24°31' E 118°05'0 0.0
2017-May-20 01:00N 24°31' E 118°05'0 0.0
2017-May-20 00:30N 24°31' E 118°05'0 0.0
2017-May-20 00:00N 24°31' E 118°05'0 0.0
2017-May-19 23:30N 24°31' E 118°05'0 0.0
2017-May-19 23:00N 24°31' E 118°05'0 0.0
2017-May-19 22:30N 24°31' E 118°05'0 0.0
2017-May-19 21:58N 24°31' E 118°05'0 0.0
2017-May-19 21:30N 24°31' E 118°05'0 0.0
2017-May-19 21:00N 24°31' E 118°05'0 0.0
2017-May-19 20:30N 24°31' E 118°05'0 0.0
2017-May-19 20:00N 24°31' E 118°05'0 0.0
2017-May-19 19:30N 24°31' E 118°05'0 0.0
2017-May-19 19:00N 24°31' E 118°05'0 0.0
2017-May-19 18:30N 24°31' E 118°05'0 0.0
2017-May-19 18:00N 24°31' E 118°05'0 0.0
2017-May-19 17:30N 24°31' E 118°05'0 0.0
2017-May-19 17:00N 24°31' E 118°05'0 0.0
2017-May-19 16:30N 24°31' E 118°05'0 0.0
2017-May-19 16:00N 24°31' E 118°05'0 0.0
2017-May-19 15:30N 24°31' E 118°05'0 0.0
2017-May-19 15:00N 24°31' E 118°05'0 0.0
2017-May-19 14:00N 24°31' E 118°05'0 0.0
2017-May-19 13:30N 24°31' E 118°05'0 0.0
2017-May-19 13:00N 24°31' E 118°05'0 0.0
2017-May-19 12:30N 24°31' E 118°05'0 0.0
2017-May-19 12:00N 24°31' E 118°05'0 0.0
2017-May-19 11:30N 24°31' E 118°05'0 0.0
2017-May-19 11:00N 24°31' E 118°05'0 0.0
2017-May-19 10:30N 24°31' E 118°05'3 4.8
2017-May-19 09:59N 24°28' E 118°03'510.6
2017-May-19 09:30N 24°24' E 118°06'4 8.7
2017-May-19 09:00N 24°21' E 118°10'5 9.4
2017-May-19 08:30N 24°18' E 118°13'3 6.8
2017-May-19 08:00N 24°15' E 118°16'510.0
2017-May-19 07:30N 24°11' E 118°19'612.4
2017-May-19 07:00N 24°05' E 118°22'12112.9
2017-May-18 21:38N 22°35' E 119°50'213.8
2017-May-18 21:30N 22°34' E 119°51'713.4
2017-May-18 21:00N 22°32' E 119°58'713.7
2017-May-18 20:31N 22°32' E 120°05'713.5
2017-May-18 20:01N 22°32' E 120°12'612.0
2017-May-18 19:31N 22°33' E 120°19'0 0.9
2017-May-18 18:58N 22°34' E 120°19'0 0.0
2017-May-18 18:25N 22°34' E 120°19'0 0.0
2017-May-18 17:58N 22°34' E 120°19'0 0.0
2017-May-18 17:28N 22°34' E 120°19'0 0.0
2017-May-18 16:55N 22°34' E 120°19'0 0.0
2017-May-18 16:28N 22°34' E 120°19'0 0.0
2017-May-18 15:55N 22°34' E 120°19'0 0.0
2017-May-18 15:25N 22°34' E 120°19'0 0.0
2017-May-18 14:58N 22°34' E 120°19'0 0.0
2017-May-18 14:25N 22°34' E 120°19'0 0.0
2017-May-18 13:25N 22°34' E 120°19'0 0.0
2017-May-18 12:55N 22°34' E 120°19'0 0.0
2017-May-18 12:10N 22°34' E 120°19'0 0.0
2017-May-18 11:58N 22°34' E 120°19'0 0.0
2017-May-18 11:28N 22°34' E 120°19'0 0.0
2017-May-18 10:58N 22°34' E 120°19'0 0.0
2017-May-18 10:25N 22°34' E 120°19'0 0.0
2017-May-18 09:55N 22°34' E 120°19'0 0.0
2017-May-18 09:25N 22°34' E 120°19'0 0.0
2017-May-18 08:55N 22°34' E 120°19'0 0.0
2017-May-18 08:28N 22°34' E 120°19'0 0.0
2017-May-18 07:58N 22°34' E 120°19'0 0.0
2017-May-18 07:25N 22°34' E 120°19'0 0.0
2017-May-18 06:58N 22°34' E 120°19'0 0.0
2017-May-18 06:25N 22°34' E 120°19'0 0.0
2017-May-18 05:58N 22°34' E 120°19'0 0.0
2017-May-18 05:28N 22°34' E 120°19'0 0.1
2017-May-18 05:00N 22°34' E 120°19'1 1.0
2017-May-18 04:30N 22°33' E 120°19'4 7.9
2017-May-18 04:00N 22°32' E 120°15'3 5.5
2017-May-18 03:30N 22°30' E 120°13'3 6.6
2017-May-18 03:00N 22°28' E 120°10'714.8
2017-May-18 02:30N 22°22' E 120°05'815.9
2017-May-18 02:00N 22°17' E 119°59'  
2017-May-14 08:45N 01°16' E 104°12'517.8
2017-May-14 08:28N 01°16' E 104°08'715.9
2017-May-14 08:00N 01°15' E 104°00'713.8
2017-May-14 07:30N 01°13' E 103°53'3 6.3
2017-May-14 07:00N 01°15' E 103°51'1 2.0
2017-May-14 06:25N 01°16' E 103°50'0 0.0
2017-May-14 05:58N 01°16' E 103°50'0 0.0
2017-May-14 05:30N 01°16' E 103°50'0 0.0
2017-May-14 05:00N 01°16' E 103°50'0 0.0
2017-May-14 04:30N 01°16' E 103°50'0 0.0
2017-May-14 04:00N 01°16' E 103°50'0 0.0
2017-May-14 03:30N 01°16' E 103°50'0 0.0
2017-May-14 03:01N 01°16' E 103°50'0 0.0
2017-May-14 02:30N 01°16' E 103°50'0 0.0
2017-May-14 02:00N 01°16' E 103°50'0 0.0
2017-May-14 01:30N 01°16' E 103°50'0 0.0
2017-May-14 01:01N 01°16' E 103°50'0 0.0
2017-May-14 00:31N 01°16' E 103°50'0 0.0
2017-May-14 00:00N 01°16' E 103°50'0 0.0
2017-May-13 23:30N 01°16' E 103°50'0 0.0
2017-May-13 23:01N 01°16' E 103°50'0 0.0
2017-May-13 22:30N 01°16' E 103°50'0 0.0
2017-May-13 22:00N 01°16' E 103°50'0 0.0
2017-May-13 21:30N 01°16' E 103°50'0 0.0
2017-May-13 21:00N 01°16' E 103°50'0 0.0
2017-May-13 20:30N 01°16' E 103°50'0 0.0
2017-May-13 20:00N 01°16' E 103°50'0 0.0
2017-May-13 19:31N 01°16' E 103°50'0 0.0
2017-May-13 19:00N 01°16' E 103°50'0 0.0
2017-May-13 18:30N 01°16' E 103°50'0 0.0
2017-May-13 18:00N 01°16' E 103°50'0 0.1
2017-May-13 17:30N 01°16' E 103°50'0 0.1
2017-May-13 17:00N 01°16' E 103°50'0 0.0
2017-May-13 16:30N 01°16' E 103°50'0 0.0
2017-May-13 16:01N 01°16' E 103°50'1 1.6
2017-May-13 15:31N 01°16' E 103°51'2 3.0
2017-May-13 15:01N 01°14' E 103°52'2 3.3
2017-May-13 14:31N 01°13' E 103°53'8 7.7
2017-May-13 13:31N 01°09' E 103°46'612.6
2017-May-13 13:00N 01°04' E 103°41'611.7
2017-May-13 12:31N 01°05' E 103°36'612.1
2017-May-13 12:00N 01°08' E 103°30'4 8.9
2017-May-13 11:30N 01°11' E 103°28'0 0.7
2017-May-13 10:59N 01°11' E 103°28'1 1.0
2017-May-13 10:28N 01°11' E 103°28'0 0.8
2017-May-13 10:00N 01°11' E 103°28'0 0.8
2017-May-13 09:27N 01°10' E 103°27'3 5.5
2017-May-13 08:59N 01°12' E 103°25'4511.7
2017-May-13 05:06N 01°38' E 102°48'1614.2
2017-May-13 03:59N 01°45' E 102°34'714.3
2017-May-13 03:31N 01°48' E 102°28'814.7
2017-May-13 02:57N 01°51' E 102°20'  
Track history (hours):
 
Tides and Currents Weather Stations Pressure Air Temp Water Temp Dewpoint Dewpoint Depression Visibility Wind Speed Wind Dir Waves Ship Positions

Ever Decent

Last reported at 2017-May-21 15:55 UTC. Time now 2017-May-25 22:04 UTC.
Position N 22°19' E 114°07'.

Length 294 m; draft 11.3 m.

Type: Cargo ship. MMSI: 564904000.

Date/timePositionNaut miles runAvg speedWind from/ knotsBaromVisibWave heightAir tempDewpointWater temp
2017-May-21 15:55N 22°19' E 114°07'0 0.0
2017-May-21 02:49N 22°19' E 114°07'24714.5
2017-May-20 09:51N 23°54' E 118°15'617.6
2017-May-20 09:30N 23°60' E 118°15'817.0
2017-May-20 09:00N 24°08' E 118°16'714.3
2017-May-20 08:30N 24°15' E 118°15'612.5
2017-May-20 08:00N 24°20' E 118°10'511.1
2017-May-20 07:30N 24°24' E 118°06'4 7.8
2017-May-20 07:00N 24°26' E 118°03'4 8.9
2017-May-20 06:30N 24°31' E 118°05'0 0.3
2017-May-20 05:56N 24°31' E 118°05'0 0.0
2017-May-20 05:26N 24°31' E 118°05'0 0.0
2017-May-20 05:00N 24°31' E 118°05'0 0.0
2017-May-20 04:30N 24°31' E 118°05'0 0.0
2017-May-20 04:00N 24°31' E 118°05'0 0.0
2017-May-20 03:30N 24°31' E 118°05'0 0.0
2017-May-20 03:00N 24°31' E 118°05'0 0.0
2017-May-20 02:30N 24°31' E 118°05'0 0.0
2017-May-20 02:00N 24°31' E 118°05'0 0.0
2017-May-20 01:29N 24°31' E 118°05'0 0.0
2017-May-20 01:00N 24°31' E 118°05'0 0.0
2017-May-20 00:30N 24°31' E 118°05'0 0.0
2017-May-20 00:00N 24°31' E 118°05'0 0.0
2017-May-19 23:30N 24°31' E 118°05'0 0.0
2017-May-19 23:00N 24°31' E 118°05'0 0.0
2017-May-19 22:30N 24°31' E 118°05'0 0.0
2017-May-19 21:58N 24°31' E 118°05'0 0.0
2017-May-19 21:30N 24°31' E 118°05'0 0.0
2017-May-19 21:00N 24°31' E 118°05'0 0.0
2017-May-19 20:30N 24°31' E 118°05'0 0.0
2017-May-19 20:00N 24°31' E 118°05'0 0.0
2017-May-19 19:30N 24°31' E 118°05'0 0.0
2017-May-19 19:00N 24°31' E 118°05'0 0.0
2017-May-19 18:30N 24°31' E 118°05'0 0.0
2017-May-19 18:00N 24°31' E 118°05'0 0.0
2017-May-19 17:30N 24°31' E 118°05'0 0.0
2017-May-19 17:00N 24°31' E 118°05'0 0.0
2017-May-19 16:30N 24°31' E 118°05'0 0.0
2017-May-19 16:00N 24°31' E 118°05'0 0.0
2017-May-19 15:30N 24°31' E 118°05'0 0.0
2017-May-19 15:00N 24°31' E 118°05'0 0.0
2017-May-19 14:00N 24°31' E 118°05'0 0.0
2017-May-19 13:30N 24°31' E 118°05'0 0.0
2017-May-19 13:00N 24°31' E 118°05'0 0.0
2017-May-19 12:30N 24°31' E 118°05'0 0.0
2017-May-19 12:00N 24°31' E 118°05'0 0.0
2017-May-19 11:30N 24°31' E 118°05'0 0.0
2017-May-19 11:00N 24°31' E 118°05'0 0.0
2017-May-19 10:30N 24°31' E 118°05'3 4.8
2017-May-19 09:59N 24°28' E 118°03'510.6
2017-May-19 09:30N 24°24' E 118°06'4 8.7
2017-May-19 09:00N 24°21' E 118°10'5 9.4
2017-May-19 08:30N 24°18' E 118°13'3 6.8
2017-May-19 08:00N 24°15' E 118°16'510.0
2017-May-19 07:30N 24°11' E 118°19'612.4
2017-May-19 07:00N 24°05' E 118°22'12112.9
2017-May-18 21:38N 22°35' E 119°50'213.8
2017-May-18 21:30N 22°34' E 119°51'713.4
2017-May-18 21:00N 22°32' E 119°58'713.7
2017-May-18 20:31N 22°32' E 120°05'713.5
2017-May-18 20:01N 22°32' E 120°12'612.0
2017-May-18 19:31N 22°33' E 120°19'0 0.9
2017-May-18 18:58N 22°34' E 120°19'0 0.0
2017-May-18 18:25N 22°34' E 120°19'0 0.0
2017-May-18 17:58N 22°34' E 120°19'0 0.0
2017-May-18 17:28N 22°34' E 120°19'0 0.0
2017-May-18 16:55N 22°34' E 120°19'0 0.0
2017-May-18 16:28N 22°34' E 120°19'0 0.0
2017-May-18 15:55N 22°34' E 120°19'0 0.0
2017-May-18 15:25N 22°34' E 120°19'0 0.0
2017-May-18 14:58N 22°34' E 120°19'0 0.0
2017-May-18 14:25N 22°34' E 120°19'0 0.0
2017-May-18 13:25N 22°34' E 120°19'0 0.0
2017-May-18 12:55N 22°34' E 120°19'0 0.0
2017-May-18 12:10N 22°34' E 120°19'0 0.0
2017-May-18 11:58N 22°34' E 120°19'0 0.0
2017-May-18 11:28N 22°34' E 120°19'0 0.0
2017-May-18 10:58N 22°34' E 120°19'0 0.0
2017-May-18 10:25N 22°34' E 120°19'0 0.0
2017-May-18 09:55N 22°34' E 120°19'0 0.0
2017-May-18 09:25N 22°34' E 120°19'0 0.0
2017-May-18 08:55N 22°34' E 120°19'0 0.0
2017-May-18 08:28N 22°34' E 120°19'0 0.0
2017-May-18 07:58N 22°34' E 120°19'0 0.0
2017-May-18 07:25N 22°34' E 120°19'0 0.0
2017-May-18 06:58N 22°34' E 120°19'0 0.0
2017-May-18 06:25N 22°34' E 120°19'0 0.0
2017-May-18 05:58N 22°34' E 120°19'0 0.0
2017-May-18 05:28N 22°34' E 120°19'0 0.1
2017-May-18 05:00N 22°34' E 120°19'1 1.0
2017-May-18 04:30N 22°33' E 120°19'4 7.9
2017-May-18 04:00N 22°32' E 120°15'3 5.5
2017-May-18 03:30N 22°30' E 120°13'3 6.6
2017-May-18 03:00N 22°28' E 120°10'714.8
2017-May-18 02:30N 22°22' E 120°05'815.9
2017-May-18 02:00N 22°17' E 119°59'  
2017-May-14 08:45N 01°16' E 104°12'517.8
2017-May-14 08:28N 01°16' E 104°08'715.9
2017-May-14 08:00N 01°15' E 104°00'713.8
2017-May-14 07:30N 01°13' E 103°53'3 6.3
2017-May-14 07:00N 01°15' E 103°51'1 2.0
2017-May-14 06:25N 01°16' E 103°50'0 0.0
2017-May-14 05:58N 01°16' E 103°50'0 0.0
2017-May-14 05:30N 01°16' E 103°50'0 0.0
2017-May-14 05:00N 01°16' E 103°50'0 0.0
2017-May-14 04:30N 01°16' E 103°50'0 0.0
2017-May-14 04:00N 01°16' E 103°50'0 0.0
2017-May-14 03:30N 01°16' E 103°50'0 0.0
2017-May-14 03:01N 01°16' E 103°50'0 0.0
2017-May-14 02:30N 01°16' E 103°50'0 0.0
2017-May-14 02:00N 01°16' E 103°50'0 0.0
2017-May-14 01:30N 01°16' E 103°50'0 0.0
2017-May-14 01:01N 01°16' E 103°50'0 0.0
2017-May-14 00:31N 01°16' E 103°50'0 0.0
2017-May-14 00:00N 01°16' E 103°50'0 0.0
2017-May-13 23:30N 01°16' E 103°50'0 0.0
2017-May-13 23:01N 01°16' E 103°50'0 0.0
2017-May-13 22:30N 01°16' E 103°50'0 0.0
2017-May-13 22:00N 01°16' E 103°50'0 0.0
2017-May-13 21:30N 01°16' E 103°50'0 0.0
2017-May-13 21:00N 01°16' E 103°50'0 0.0
2017-May-13 20:30N 01°16' E 103°50'0 0.0
2017-May-13 20:00N 01°16' E 103°50'0 0.0
2017-May-13 19:31N 01°16' E 103°50'0 0.0
2017-May-13 19:00N 01°16' E 103°50'0 0.0
2017-May-13 18:30N 01°16' E 103°50'0 0.0
2017-May-13 18:00N 01°16' E 103°50'0 0.1
2017-May-13 17:30N 01°16' E 103°50'0 0.1
2017-May-13 17:00N 01°16' E 103°50'0 0.0
2017-May-13 16:30N 01°16' E 103°50'0 0.0
2017-May-13 16:01N 01°16' E 103°50'1 1.6
2017-May-13 15:31N 01°16' E 103°51'2 3.0
2017-May-13 15:01N 01°14' E 103°52'2 3.3
2017-May-13 14:31N 01°13' E 103°53'8 7.7
2017-May-13 13:31N 01°09' E 103°46'612.6
2017-May-13 13:00N 01°04' E 103°41'611.7
2017-May-13 12:31N 01°05' E 103°36'612.1
2017-May-13 12:00N 01°08' E 103°30'4 8.9
2017-May-13 11:30N 01°11' E 103°28'0 0.7
2017-May-13 10:59N 01°11' E 103°28'1 1.0
2017-May-13 10:28N 01°11' E 103°28'0 0.8
2017-May-13 10:00N 01°11' E 103°28'0 0.8
2017-May-13 09:27N 01°10' E 103°27'3 5.5
2017-May-13 08:59N 01°12' E 103°25'4511.7
2017-May-13 05:06N 01°38' E 102°48'1614.2
2017-May-13 03:59N 01°45' E 102°34'714.3
2017-May-13 03:31N 01°48' E 102°28'814.7
2017-May-13 02:57N 01°51' E 102°20'  

Dump ship's entire track history